Time;durP1;ratioP1;P1;durP2;ratioP2;P2;SDS_P1;SDS_P2;PMS_P1;PMS_P2;Temp;Humidity;BMP_temperature;BMP_pressure;BME280_temperature;BME280_humidity;BME280_pressure;Samples;Min_cycle;Max_cycle;Signal;HPM_P1;HPM_P2
2022/10/12 00:00:42;;;;;;;63.05;58.35;;;;;;;13.25;100.00;101768.78;6126909;23;20391;-84
2022/10/12 00:03:10;;;;;;;58.45;53.92;;;;;;;13.34;100.00;101772.09;6128318;23;20045;-83
2022/10/12 00:05:38;;;;;;;59.50;54.85;;;;;;;13.31;100.00;101772.47;6128468;23;20049;-82
2022/10/12 00:08:05;;;;;;;63.20;57.97;;;;;;;13.31;100.00;101777.81;6128709;23;20021;-85
2022/10/12 00:10:31;;;;;;;67.18;61.92;;;;;;;13.06;100.00;101769.47;6128375;23;20085;-81
2022/10/12 00:12:59;;;;;;;62.15;57.50;;;;;;;13.05;100.00;101760.63;6128693;23;20108;-80
2022/10/12 00:15:27;;;;;;;65.65;60.45;;;;;;;13.21;100.00;101767.47;6128858;23;20022;-81
2022/10/12 00:17:54;;;;;;;63.58;58.25;;;;;;;13.23;100.00;101770.78;6128543;23;20018;-81
2022/10/12 00:20:25;;;;;;;64.90;60.08;;;;;;;13.20;100.00;101770.38;6127949;23;20084;-82
2022/10/12 00:22:52;;;;;;;64.10;59.00;;;;;;;13.11;100.00;101775.03;6127146;23;20022;-82
2022/10/12 00:25:20;;;;;;;61.67;56.80;;;;;;;13.10;100.00;101770.72;6128771;23;20025;-83
2022/10/12 00:27:49;;;;;;;61.47;56.55;;;;;;;13.26;100.00;101778.44;6128410;23;20026;-81
2022/10/12 00:30:17;;;;;;;70.28;65.03;;;;;;;13.21;100.00;101769.34;6128649;23;20026;-83
2022/10/12 00:32:46;;;;;;;62.90;58.10;;;;;;;13.22;100.00;101774.50;6127314;23;20021;-84
2022/10/12 00:35:14;;;;;;;58.72;53.92;;;;;;;13.23;100.00;101767.31;6128514;23;20037;-81
2022/10/12 00:37:44;;;;;;;58.30;53.75;;;;;;;13.31;100.00;101779.66;6128376;23;20317;-82
2022/10/12 00:40:12;;;;;;;59.13;54.70;;;;;;;13.24;100.00;101771.59;6128587;23;20030;-80
2022/10/12 00:42:39;;;;;;;56.42;51.90;;;;;;;13.12;100.00;101774.00;6128844;23;20025;-82
2022/10/12 00:45:09;;;;;;;57.05;52.75;;;;;;;12.94;100.00;101774.50;6128417;23;20028;-83
2022/10/12 00:47:49;;;;;;;62.30;57.35;;;;;;;12.91;100.00;101763.41;6127795;23;20506;-82
2022/10/12 00:50:21;;;;;;;60.80;56.03;;;;;;;13.03;100.00;101765.34;6127908;23;20125;-83
2022/10/12 00:52:55;;;;;;;61.95;57.20;;;;;;;13.07;100.00;101763.94;6127738;23;20022;-82
2022/10/12 00:55:26;;;;;;;59.17;54.58;;;;;;;12.88;100.00;101761.97;6128640;23;20077;-83
2022/10/12 00:58:04;;;;;;;58.97;54.47;;;;;;;12.91;100.00;101766.91;6128251;23;20026;-81
2022/10/12 01:00:35;;;;;;;63.10;58.22;;;;;;;12.92;100.00;101765.91;6128166;23;20029;-81
2022/10/12 01:03:07;;;;;;;67.45;61.85;;;;;;;13.00;100.00;101764.91;6127808;23;20403;-82
2022/10/12 01:05:36;;;;;;;59.28;54.78;;;;;;;12.93;100.00;101772.06;6127304;23;20026;-82
2022/10/12 01:08:10;;;;;;;64.82;59.72;;;;;;;12.88;100.00;101761.16;6128997;23;20443;-80
2022/10/12 01:10:37;;;;;;;65.55;60.83;;;;;;;12.98;100.00;101761.59;6128324;23;20022;-81
2022/10/12 01:13:04;;;;;;;62.45;57.65;;;;;;;12.89;100.00;101768.13;6128429;23;20379;-81
2022/10/12 01:15:36;;;;;;;63.70;58.50;;;;;;;12.96;100.00;101766.34;6126614;23;20017;-81
2022/10/12 01:18:07;;;;;;;;;;;;;;;12.83;100.00;101762.56;6128268;23;20029;-81
2022/10/12 01:21:05;;;;;;;60.50;55.85;;;;;;;12.90;100.00;101772.44;6128298;23;19923;-81
2022/10/12 01:24:11;;;;;;;58.80;54.33;;;;;;;12.75;100.00;101773.38;6110628;23;20514;-82
2022/10/12 01:27:09;;;;;;;67.35;62.55;;;;;;;12.90;100.00;101770.59;6105863;23;20022;-85
2022/10/12 01:30:15;;;;;;;62.88;58.00;;;;;;;13.02;100.00;101771.69;6128074;23;20397;-81
2022/10/12 01:33:00;;;;;;;61.65;56.58;;;;;;;13.00;100.00;101779.06;6127201;23;20022;-81
2022/10/12 01:35:33;;;;;;;66.70;61.65;;;;;;;13.07;100.00;101787.09;6127684;23;20021;-82
2022/10/12 01:38:11;;;;;;;64.25;59.35;;;;;;;12.86;100.00;101785.34;6127881;23;20041;-81
2022/10/12 01:40:44;;;;;;;66.72;61.70;;;;;;;12.91;100.00;101779.41;6128535;23;20029;-83
2022/10/12 01:43:11;;;;;;;66.72;61.67;;;;;;;12.86;100.00;101774.69;6128404;23;20021;-81
2022/10/12 01:45:38;;;;;;;71.18;66.13;;;;;;;12.93;100.00;101782.72;6127686;23;20085;-82
2022/10/12 01:48:06;;;;;;;66.00;61.30;;;;;;;12.97;100.00;101776.78;6128213;23;20029;-84
2022/10/12 01:50:47;;;;;;;65.05;60.42;;;;;;;12.78;100.00;101782.81;6127475;23;20092;-81
2022/10/12 01:53:28;;;;;;;68.88;63.80;;;;;;;12.83;100.00;101783.06;6127444;23;20022;-83
2022/10/12 01:56:03;;;;;;;69.53;64.45;;;;;;;12.96;100.00;101777.00;6127906;23;20033;-82
2022/10/12 01:58:45;;;;;;;67.97;63.20;;;;;;;12.90;100.00;101781.25;6127449;23;20109;-83
2022/10/12 02:01:21;;;;;;;58.60;54.28;;;;;;;12.86;100.00;101781.84;6121973;23;20343;-84
2022/10/12 02:03:57;;;;;;;63.85;58.90;;;;;;;12.89;100.00;101784.97;6127058;23;20029;-81
2022/10/12 02:06:30;;;;;;;65.63;60.83;;;;;;;12.96;100.00;101777.81;6127628;23;20025;-81
2022/10/12 02:09:02;;;;;;;63.05;58.28;;;;;;;12.90;100.00;101780.44;6127720;23;20435;-81
2022/10/12 02:11:29;;;;;;;66.15;61.40;;;;;;;12.92;100.00;101778.38;6128106;23;20309;-83
2022/10/12 02:14:03;;;;;;;68.95;63.83;;;;;;;12.95;100.00;101778.84;6127881;23;20022;-83
2022/10/12 02:16:34;;;;;;;61.65;56.90;;;;;;;12.91;100.00;101776.75;6128456;23;20053;-84
2022/10/12 02:19:07;;;;;;;63.97;58.78;;;;;;;12.81;100.00;101783.25;6127915;23;20093;-81
2022/10/12 02:21:35;;;;;;;66.78;61.88;;;;;;;12.86;100.00;101776.50;6127533;23;20447;-84
2022/10/12 02:24:05;;;;;;;58.88;54.47;;;;;;;12.86;100.00;101781.84;6127340;23;20029;-83
2022/10/12 02:26:34;;;;;;;60.35;55.85;;;;;;;12.91;100.00;101776.75;6128069;23;20029;-81
2022/10/12 02:29:03;;;;;;;56.42;51.90;;;;;;;12.91;100.00;101780.22;6127982;23;20096;-83
2022/10/12 02:31:36;;;;;;;60.03;55.50;;;;;;;12.98;100.00;101778.44;6127436;23;20096;-84
2022/10/12 02:34:11;;;;;;;60.40;55.58;;;;;;;12.98;100.00;101774.94;6126978;23;20144;-82
2022/10/12 02:36:46;;;;;;;60.08;55.38;;;;;;;12.83;100.00;101781.22;6127434;23;20022;-81
2022/10/12 02:39:17;;;;;;;60.72;56.22;;;;;;;12.92;100.00;101789.91;6128012;23;20030;-81
2022/10/12 02:41:49;;;;;;;60.88;56.25;;;;;;;12.95;100.00;101789.50;6127631;23;20029;-82
2022/10/12 02:44:20;;;;;;;54.55;50.10;;;;;;;12.52;100.00;101788.75;6128060;23;20080;-81
2022/10/12 02:46:49;;;;;;;58.93;54.40;;;;;;;12.47;100.00;101791.22;6128240;23;20018;-81
2022/10/12 02:49:17;;;;;;;57.78;53.28;;;;;;;12.45;100.00;101783.38;6127431;23;20025;-83
2022/10/12 02:51:46;;;;;;;59.92;55.25;;;;;;;12.45;100.00;101783.38;6127340;23;20053;-82
2022/10/12 02:54:20;;;;;;;60.22;55.63;;;;;;;12.57;100.00;101781.84;6126915;23;20022;-83
2022/10/12 02:56:49;;;;;;;58.42;53.80;;;;;;;12.61;100.00;101785.75;6127852;23;20022;-84
2022/10/12 02:59:17;;;;;;;54.80;50.55;;;;;;;12.62;100.00;101786.59;6126960;23;20321;-83
2022/10/12 03:01:45;;;;;;;56.13;51.75;;;;;;;12.53;100.00;101785.09;6127132;23;20092;-82
2022/10/12 03:04:12;;;;;;;59.28;54.13;;;;;;;12.65;100.00;101783.56;6127376;23;20097;-81
2022/10/12 03:06:42;;;;;;;70.28;64.85;;;;;;;12.80;100.00;101784.28;6126883;23;20092;-82
2022/10/12 03:09:09;;;;;;;58.75;54.38;;;;;;;12.79;100.00;101781.78;6127112;23;20117;-81
2022/10/12 03:11:42;;;;;;;57.25;52.67;;;;;;;12.85;100.00;101783.69;6127785;23;20113;-84
2022/10/12 03:14:11;;;;;;;53.60;49.33;;;;;;;12.37;100.00;101789.69;6127287;23;20033;-84
2022/10/12 03:16:37;;;;;;;58.50;54.13;;;;;;;12.54;100.00;101787.56;6126886;23;20057;-84
2022/10/12 03:19:04;;;;;;;58.42;54.15;;;;;;;12.37;100.00;101787.03;6126435;23;20443;-83
2022/10/12 03:21:31;;;;;;;59.88;55.42;;;;;;;12.53;100.00;101790.44;6128087;23;20093;-83
2022/10/12 03:24:00;;;;;;;57.47;52.92;;;;;;;12.45;100.00;101783.38;6127483;23;20313;-82
2022/10/12 03:26:27;;;;;;;57.95;53.50;;;;;;;12.50;100.00;101788.97;6128081;23;20026;-82
2022/10/12 03:28:54;;;;;;;56.63;52.58;;;;;;;12.62;100.00;101797.28;6128396;23;20018;-81
2022/10/12 03:31:22;;;;;;;53.05;49.17;;;;;;;12.43;100.00;101788.06;6128663;23;20421;-82
2022/10/12 03:33:50;;;;;;;58.75;54.65;;;;;;;12.40;100.00;101792.97;6128830;23;20026;-82
2022/10/12 03:36:16;;;;;;;63.70;59.30;;;;;;;12.36;100.00;101781.88;6128681;23;20018;-82
2022/10/12 03:38:43;;;;;;;62.65;58.00;;;;;;;12.56;100.00;101788.19;6130929;23;20101;-83
2022/10/12 03:41:11;;;;;;;58.53;54.17;;;;;;;12.50;100.00;101786.31;6128392;23;20030;-83
2022/10/12 03:43:38;;;;;;;59.95;55.33;;;;;;;12.49;100.00;101789.16;6128521;23;20341;-81
2022/10/12 03:46:06;;;;;;;65.93;61.28;;;;;;;12.39;100.00;101789.47;6129301;23;20030;-84
2022/10/12 03:48:33;;;;;;;53.72;49.67;;;;;;;12.37;100.00;101796.84;6130391;23;20443;-83
2022/10/12 03:51:00;;;;;;;53.50;48.70;;;;;;;12.21;100.00;101794.44;6129200;23;20018;-81
2022/10/12 03:53:30;;;;;;;53.58;49.28;;;;;;;12.24;100.00;101807.38;6127097;23;20097;-81
2022/10/12 03:55:59;;;;;;;56.92;52.75;;;;;;;12.39;100.00;101802.81;6126678;23;20045;-82
2022/10/12 03:58:28;;;;;;;62.00;57.20;;;;;;;12.35;100.00;101797.03;6126050;23;20030;-81
2022/10/12 04:00:55;;;;;;;77.03;70.78;;;;;;;12.35;100.00;101805.03;6126224;23;20022;-80
2022/10/12 04:03:22;;;;;;;82.35;76.07;;;;;;;12.40;100.00;101806.28;6127051;23;20030;-81
2022/10/12 04:05:53;;;;;;;86.95;80.13;;;;;;;12.44;100.00;101800.41;6125196;23;20025;-81
2022/10/12 04:08:20;;;;;;;80.90;74.07;;;;;;;12.41;100.00;101813.28;6127510;23;20053;-83
2022/10/12 04:10:47;;;;;;;86.40;78.68;;;;;;;12.35;100.00;101809.53;6127148;23;20026;-83
2022/10/12 04:13:13;;;;;;;85.22;78.35;;;;;;;12.34;100.00;101808.72;6127268;23;20026;-83
2022/10/12 04:15:42;;;;;;;84.60;77.82;;;;;;;12.15;100.00;101810.16;6129034;23;20029;-82
2022/10/12 04:18:08;;;;;;;60.83;55.75;;;;;;;12.05;100.00;101809.66;6126720;23;20022;-81
2022/10/12 04:20:36;;;;;;;59.28;54.15;;;;;;;12.12;100.00;101809.72;6128239;23;20018;-83
2022/10/12 04:23:03;;;;;;;59.55;54.47;;;;;;;12.18;100.00;101818.78;6126869;23;20022;-83
2022/10/12 04:25:31;;;;;;;57.90;53.25;;;;;;;12.21;100.00;101818.41;6127780;23;20021;-84
2022/10/12 04:27:59;;;;;;;56.90;52.10;;;;;;;12.31;100.00;101816.25;6128786;23;20030;-82
2022/10/12 04:30:27;;;;;;;57.55;52.78;;;;;;;12.25;100.00;101825.81;6127968;23;20471;-81
2022/10/12 04:32:56;;;;;;;61.42;56.63;;;;;;;12.29;100.00;101823.63;6127774;23;20438;-83
2022/10/12 04:35:23;;;;;;;55.90;51.33;;;;;;;12.20;100.00;101814.13;6127131;23;20022;-83
2022/10/12 04:37:50;;;;;;;61.67;56.83;;;;;;;12.14;100.00;101821.00;6127472;23;20029;-84
2022/10/12 04:40:18;;;;;;;69.05;64.38;;;;;;;12.15;100.00;101833.31;6127129;23;20526;-82
2022/10/12 04:42:45;;;;;;;61.20;56.70;;;;;;;12.10;100.00;101822.38;6128277;23;20521;-83
2022/10/12 04:45:11;;;;;;;62.83;57.70;;;;;;;12.11;100.00;101834.72;6127169;23;20093;-84
2022/10/12 04:47:46;;;;;;;60.03;55.58;;;;;;;12.17;100.00;101828.63;6128306;23;20030;-83
2022/10/12 04:50:25;;;;;;;67.70;62.78;;;;;;;12.18;100.00;101832.09;6129536;23;20026;-82
2022/10/12 04:52:52;;;;;;;72.00;67.00;;;;;;;12.24;100.00;101839.34;6125556;23;20022;-82
2022/10/12 04:55:19;;;;;;;65.47;59.78;;;;;;;12.06;100.00;101834.44;6074768;23;20021;-82
2022/10/12 04:57:48;;;;;;;63.42;58.47;;;;;;;12.20;100.00;101843.41;6129793;23;20022;-84
2022/10/12 05:00:17;;;;;;;69.75;64.45;;;;;;;12.21;100.00;101837.88;6128096;23;20065;-81
2022/10/12 05:02:44;;;;;;;61.30;56.60;;;;;;;12.19;100.00;101844.41;6127997;23;20026;-82
2022/10/12 05:05:11;;;;;;;67.55;62.15;;;;;;;12.28;100.00;101843.25;6129064;23;20018;-81
2022/10/12 05:07:40;;;;;;;73.47;67.45;;;;;;;12.34;100.00;101847.84;6091083;23;20029;-83
2022/10/12 05:10:08;;;;;;;81.85;75.30;;;;;;;12.37;100.00;101853.63;6127736;23;20018;-82
2022/10/12 05:12:49;;;;;;;86.18;79.93;;;;;;;12.40;100.00;101851.59;6129182;23;20018;-83
2022/10/12 05:15:17;;;;;;;94.78;88.13;;;;;;;12.56;100.00;101856.66;6129114;23;20022;-82
2022/10/12 05:17:48;;;;;;;86.85;81.10;;;;;;;12.33;100.00;101855.00;6127611;23;20117;-82
2022/10/12 05:20:17;;;;;;;80.57;75.15;;;;;;;12.48;100.00;101857.63;6128150;23;20028;-83
2022/10/12 05:22:45;;;;;;;68.07;62.78;;;;;;;12.45;100.00;101859.84;6127591;23;20018;-84
2022/10/12 05:25:12;;;;;;;70.18;64.65;;;;;;;12.56;100.00;101864.66;6133292;23;20022;-82
2022/10/12 05:27:40;;;;;;;91.30;85.40;;;;;;;12.67;100.00;101864.13;6129035;23;20463;-84
2022/10/12 05:30:17;;;;;;;87.00;80.97;;;;;;;12.91;100.00;101868.22;6127482;23;20022;-83
2022/10/12 05:32:44;;;;;;;85.00;78.32;;;;;;;12.95;100.00;101866.00;6128527;23;20049;-83
2022/10/12 05:35:16;;;;;;;84.22;77.93;;;;;;;13.05;100.00;101867.31;6131189;23;20050;-82
2022/10/12 05:37:42;;;;;;;83.30;77.15;;;;;;;12.84;100.00;101878.84;6126738;23;20037;-83
2022/10/12 05:40:13;;;;;;;79.97;73.85;;;;;;;12.69;100.00;101885.28;6128251;23;20108;-82
2022/10/12 05:42:40;;;;;;;84.03;77.55;;;;;;;12.93;100.00;101892.88;6127940;23;20049;-82
2022/10/12 05:45:10;;;;;;;84.38;77.75;;;;;;;13.15;100.00;101895.50;6127888;23;20102;-83
2022/10/12 05:47:42;;;;;;;84.28;78.05;;;;;;;13.24;100.00;101895.13;6127653;23;20022;-82
2022/10/12 05:50:09;;;;;;;85.28;79.15;;;;;;;13.27;100.00;101901.97;6131994;23;20316;-83
2022/10/12 05:52:37;;;;;;;86.90;79.63;;;;;;;13.43;100.00;101898.16;6127376;23;20026;-82
2022/10/12 05:55:04;;;;;;;84.90;78.15;;;;;;;13.42;100.00;101902.69;6128345;23;20032;-83
2022/10/12 05:57:35;;;;;;;72.45;65.95;;;;;;;13.51;100.00;101904.19;6126604;23;20089;-82
2022/10/12 06:00:02;;;;;;;58.17;52.90;;;;;;;13.24;100.00;101902.31;6127353;23;20025;-82
2022/10/12 06:02:33;;;;;;;60.42;54.67;;;;;;;13.58;100.00;101912.22;6128407;23;20455;-84
2022/10/12 06:05:07;;;;;;;60.58;54.67;;;;;;;13.74;100.00;101913.75;6125809;23;20021;-83
2022/10/12 06:07:34;;;;;;;64.50;57.65;;;;;;;13.86;100.00;101916.69;6129275;23;20018;-82
2022/10/12 06:10:01;;;;;;;61.22;55.38;;;;;;;13.72;100.00;101923.81;6128046;23;20014;-81
2022/10/12 06:12:29;;;;;;;63.92;57.58;;;;;;;13.69;100.00;101927.69;6130600;23;20029;-83
2022/10/12 06:14:59;;;;;;;62.92;57.50;;;;;;;13.90;100.00;101923.28;6130551;23;20014;-81
2022/10/12 06:17:28;;;;;;;63.28;57.95;;;;;;;13.81;100.00;101919.13;6128521;23;20037;-83
2022/10/12 06:19:57;;;;;;;57.17;52.28;;;;;;;13.89;100.00;101926.97;6129278;23;20018;-83
2022/10/12 06:22:24;;;;;;;64.50;59.17;;;;;;;14.04;100.00;101922.31;6126828;23;20018;-84
2022/10/12 06:24:50;;;;;;;63.03;57.38;;;;;;;13.93;100.00;101921.03;6128247;23;20092;-82
2022/10/12 06:27:18;;;;;;;68.72;63.47;;;;;;;14.08;100.00;101938.78;6127821;23;20327;-84
2022/10/12 06:29:45;;;;;;;66.65;61.53;;;;;;;14.17;100.00;101934.91;6125853;23;20096;-83
2022/10/12 06:32:15;;;;;;;61.00;56.08;;;;;;;14.19;100.00;101936.34;6126563;23;20089;-84
2022/10/12 06:34:42;;;;;;;58.10;53.47;;;;;;;14.36;100.00;101946.66;6132003;23;20014;-83
2022/10/12 06:37:10;;;;;;;73.82;69.03;;;;;;;14.47;100.00;101943.41;6126663;23;20022;-84
2022/10/12 06:39:45;;;;;;;59.72;55.28;;;;;;;14.49;100.00;101951.22;6125688;23;20459;-85
2022/10/12 06:42:16;;;;;;;70.40;65.40;;;;;;;14.48;100.00;101944.25;6126699;23;20346;-83
2022/10/12 06:44:43;;;;;;;64.15;59.13;;;;;;;14.62;100.00;101949.44;6127266;23;20025;-84
2022/10/12 06:47:15;;;;;;;61.92;57.80;;;;;;;14.82;100.00;101944.13;6127398;23;20463;-83
2022/10/12 06:49:50;;;;;;;58.03;53.70;;;;;;;14.98;100.00;101947.44;6129171;23;20113;-84
2022/10/12 06:52:30;;;;;;;58.40;54.25;;;;;;;14.77;100.00;101949.28;6126544;23;20082;-84
2022/10/12 06:54:57;;;;;;;52.85;48.83;;;;;;;14.94;100.00;101944.34;6129346;23;20028;-83
2022/10/12 06:57:29;;;;;;;50.10;45.75;;;;;;;14.95;100.00;101943.31;6129180;23;20025;-84
2022/10/12 06:59:56;;;;;;;51.03;47.33;;;;;;;15.01;100.00;101933.66;6126474;23;20022;-83
2022/10/12 07:02:26;;;;;;;57.42;53.58;;;;;;;15.17;100.00;101943.13;6133998;23;20355;-83
2022/10/12 07:04:53;;;;;;;50.80;47.35;;;;;;;15.30;100.00;101941.25;6127183;23;20519;-84
2022/10/12 07:07:20;;;;;;;63.90;59.90;;;;;;;15.42;100.00;101941.44;6129476;23;20026;-84
2022/10/12 07:09:48;;;;;;;50.63;47.25;;;;;;;15.25;100.00;101953.59;6131523;23;20089;-85
2022/10/12 07:12:16;;;;;;;51.42;47.38;;;;;;;15.63;100.00;101939.53;6128613;23;20022;-82
2022/10/12 07:14:43;;;;;;;54.85;50.67;;;;;;;15.75;100.00;101940.56;6131864;23;20096;-82
2022/10/12 07:17:14;;;;;;;52.20;48.47;;;;;;;15.85;100.00;101938.28;6127949;23;20021;-85
2022/10/12 07:19:50;;;;;;;51.22;47.22;;;;;;;15.72;100.00;101938.31;6126076;23;20022;-84
2022/10/12 07:22:18;;;;;;;53.38;49.17;;;;;;;16.16;100.00;101947.44;6126929;23;20080;-84
2022/10/12 07:24:48;;;;;;;51.13;47.38;;;;;;;16.03;100.00;101934.91;6129388;23;20018;-83
2022/10/12 07:27:18;;;;;;;51.80;47.90;;;;;;;16.31;100.00;101939.09;6132122;23;20029;-83
2022/10/12 07:29:50;;;;;;;51.30;47.00;;;;;;;16.25;100.00;101938.13;6131742;23;20053;-84
2022/10/12 07:32:18;;;;;;;51.72;47.97;;;;;;;16.41;100.00;101939.47;6130878;23;20023;-83
2022/10/12 07:34:57;;;;;;;48.65;45.15;;;;;;;16.31;100.00;101949.81;6128122;23;20028;-87
2022/10/12 07:37:36;;;;;;;54.88;50.55;;;;;;;16.42;100.00;101938.44;6129526;23;20041;-82
2022/10/12 07:40:05;;;;;;;48.05;44.45;;;;;;;16.43;100.00;101943.59;6130041;23;20430;-83
2022/10/12 07:42:32;;;;;;;47.33;43.20;;;;;;;16.52;100.00;101946.84;6126260;23;20330;-83
2022/10/12 07:45:05;;;;;;;45.40;41.80;;;;;;;16.73;100.00;101942.97;6132535;23;20449;-82
2022/10/12 07:47:42;;;;;;;46.95;42.67;;;;;;;16.54;100.00;101944.75;6131649;23;20383;-81
2022/10/12 07:50:16;;;;;;;46.80;43.20;;;;;;;16.91;100.00;101939.56;6135100;23;20025;-83
2022/10/12 07:52:43;;;;;;;47.40;42.92;;;;;;;17.07;100.00;101939.06;6132588;23;20029;-84
2022/10/12 07:55:10;;;;;;;45.85;41.30;;;;;;;16.92;100.00;101936.69;6128621;23;20029;-83
2022/10/12 07:57:39;;;;;;;44.20;40.53;;;;;;;16.77;100.00;101932.69;6129260;23;20089;-82
2022/10/12 08:00:12;;;;;;;45.92;41.63;;;;;;;16.92;100.00;101941.25;6129983;23;20033;-83
2022/10/12 08:02:44;;;;;;;46.97;42.70;;;;;;;17.99;100.00;101935.66;6130576;23;20022;-83
2022/10/12 08:05:16;;;;;;;45.72;41.90;;;;;;;17.95;100.00;101934.47;6127898;23;20022;-82
2022/10/12 08:07:43;;;;;;;44.85;41.08;;;;;;;18.22;100.00;101934.97;6127298;23;20096;-82
2022/10/12 08:10:10;;;;;;;45.03;41.22;;;;;;;18.15;100.00;101937.72;6127386;23;20022;-83
2022/10/12 08:12:49;;;;;;;48.05;44.08;;;;;;;18.31;100.00;101929.03;6126890;23;20093;-83
2022/10/12 08:15:21;;;;;;;46.92;42.90;;;;;;;19.19;100.00;101937.44;6126798;23;20050;-84
2022/10/12 08:17:53;;;;;;;43.75;39.75;;;;;;;18.38;100.00;101936.19;6126134;23;20352;-84
2022/10/12 08:20:24;;;;;;;41.65;38.28;;;;;;;18.08;100.00;101927.03;6127374;23;20022;-83
2022/10/12 08:22:54;;;;;;;42.45;38.42;;;;;;;18.06;100.00;101937.22;6127435;23;20612;-81
2022/10/12 08:25:25;;;;;;;43.15;39.42;;;;;;;18.52;100.00;101933.06;6128436;23;20038;-82
2022/10/12 08:27:58;;;;;;;47.45;43.45;;;;;;;19.70;100.00;101929.66;6127651;23;20106;-81
2022/10/12 08:30:28;;;;;;;;;;;;;;;20.75;100.00;101937.38;6128765;23;20022;-81
2022/10/12 08:32:56;;;;;;;45.35;40.85;;;;;;;20.52;100.00;101930.25;6128322;23;19921;-82
2022/10/12 08:35:25;;;;;;;47.42;43.33;;;;;;;19.92;100.00;101927.19;6129388;23;20025;-82
2022/10/12 08:37:54;;;;;;;47.63;43.50;;;;;;;21.40;100.00;101935.97;6129471;23;20077;-83
2022/10/12 08:43:38;;;;;;;46.05;42.17;;;;;;;20.73;100.00;101925.19;6126749;23;20022;-83
2022/10/12 08:46:07;;;;;;;45.53;41.47;;;;;;;21.46;100.00;101921.47;6128369;23;20022;-81
2022/10/12 08:48:51;;;;;;;46.70;42.28;;;;;;;21.58;100.00;101928.66;6129448;23;20037;-83
2022/10/12 08:51:45;;;;;;;47.28;42.88;;;;;;;21.92;100.00;101924.75;6130979;23;20096;-82
2022/10/12 08:54:24;;;;;;;48.55;44.13;;;;;;;22.00;100.00;101923.50;6131667;23;20372;-82
2022/10/12 08:57:04;;;;;;;45.20;41.58;;;;;;;22.64;100.00;101915.50;6128438;23;20021;-83
2022/10/12 08:59:45;;;;;;;45.70;41.63;;;;;;;22.78;100.00;101920.47;6128286;23;20018;-82
2022/10/12 09:03:04;;;;;;;45.28;40.92;;;;;;;22.06;100.00;101921.63;6127604;23;20432;-81
2022/10/12 09:05:40;;;;;;;44.30;40.72;;;;;;;22.88;100.00;101927.88;6126999;23;20277;-82
2022/10/12 09:08:45;;;;;;;44.97;41.30;;;;;;;22.26;100.00;101934.59;6129824;23;20014;-83
2022/10/12 09:11:50;;;;;;;48.13;44.20;;;;;;;23.45;100.00;101932.59;6127896;23;20022;-81
2022/10/12 09:14:41;;;;;;;41.85;38.67;;;;;;;24.38;97.21;101923.72;6129972;23;20018;-82
2022/10/12 09:17:29;;;;;;;44.10;40.55;;;;;;;24.13;89.53;101924.50;6125033;23;20022;-82
2022/10/12 09:23:37;;;;;;;46.47;43.58;;;;;;;25.68;60.28;101919.50;6023978;23;20030;-83
2022/10/12 09:29:41;;;;;;;;;;;;;;;;;;;;;
2022/10/12 09:32:46;;;;;;;48.05;44.53;;;;;;;23.63;72.50;101931.31;6126365;23;20100;-82
2022/10/12 09:35:24;;;;;;;45.53;42.25;;;;;;;23.28;55.78;101930.06;6068660;23;20067;-83
2022/10/12 09:37:56;;;;;;;43.63;40.40;;;;;;;23.92;58.14;101923.63;6069733;23;20022;-82
2022/10/12 09:40:34;;;;;;;43.45;40.53;;;;;;;23.38;54.74;101929.31;6072155;23;20023;-82
2022/10/12 09:43:04;;;;;;;43.33;40.20;;;;;;;23.61;55.01;101922.66;6070642;23;20078;-82
2022/10/12 09:45:41;;;;;;;43.78;40.60;;;;;;;22.95;52.47;101923.88;6082059;23;20098;-83
2022/10/12 09:48:23;;;;;;;40.03;37.33;;;;;;;23.70;58.02;101930.03;6127809;23;20097;-81
2022/10/12 09:50:57;;;;;;;40.63;37.72;;;;;;;24.27;52.14;101914.75;6126440;23;20025;-81
2022/10/12 09:53:34;;;;;;;41.05;38.22;;;;;;;25.07;49.07;101925.91;6128525;23;20454;-82
2022/10/12 09:56:28;;;;;;;39.67;36.75;;;;;;;25.23;48.81;101926.72;6133556;23;20030;-84
2022/10/12 09:59:15;;;;;;;39.17;36.58;;;;;;;24.48;53.39;101910.19;6127223;23;20029;-84
2022/10/12 10:02:13;;;;;;;;;;;;;;;;;;;;;
2022/10/12 10:04:50;;;;;;;40.47;37.30;;;;;;;25.59;50.73;101910.28;6128009;23;20117;-80
2022/10/12 10:07:37;;;;;;;39.22;36.50;;;;;;;26.17;51.46;101907.84;6126875;23;20129;-82
2022/10/12 10:10:20;;;;;;;37.83;35.08;;;;;;;23.96;50.49;101913.84;6127531;23;20080;-83
2022/10/12 10:13:01;;;;;;;40.40;37.60;;;;;;;23.03;53.68;101915.28;6126150;23;20057;-81
2022/10/12 10:15:31;;;;;;;39.17;36.67;;;;;;;22.84;52.48;101916.72;6126007;23;20349;-79
2022/10/12 10:18:04;;;;;;;38.75;36.28;;;;;;;23.34;51.18;101912.75;6126158;23;20018;-81
2022/10/12 10:20:33;;;;;;;38.53;35.92;;;;;;;23.20;46.91;101906.97;6126497;23;20017;-78
2022/10/12 10:23:13;;;;;;;;;;;;;;;;;;;;;
2022/10/12 10:25:41;;;;;;;37.88;35.33;;;;;;;22.63;46.79;101903.03;6126200;23;20105;-78
2022/10/12 10:28:35;;;;;;;40.78;38.47;;;;;;;22.79;45.78;101892.31;6125844;23;20459;-81
2022/10/12 10:31:03;;;;;;;38.10;35.78;;;;;;;23.68;45.13;101901.53;6126317;23;20399;-80
2022/10/12 10:33:40;;;;;;;37.33;34.83;;;;;;;23.74;44.58;101895.88;6126256;23;20439;-83
2022/10/12 10:36:19;;;;;;;38.53;35.92;;;;;;;25.16;44.03;101879.19;6126051;23;20097;-79
2022/10/12 10:39:05;;;;;;;;;;;;;;;;;;;;;
2022/10/12 10:41:46;;;;;;;42.88;39.92;;;;;;;25.32;41.25;101873.41;6126043;23;20040;-79
2022/10/12 10:45:03;;;;;;;38.63;36.33;;;;;;;25.48;43.56;101865.22;6125753;23;20092;-78
2022/10/12 10:47:34;;;;;;;39.08;36.67;;;;;;;24.33;44.85;101874.88;6125705;23;20044;-81
2022/10/12 10:50:26;;;;;;;38.30;35.90;;;;;;;24.17;45.95;101857.72;6125733;23;20034;-81
2022/10/12 10:52:58;;;;;;;39.85;37.33;;;;;;;23.50;45.37;101867.56;6124894;23;20018;-78
2022/10/12 10:55:40;;;;;;;37.60;35.30;;;;;;;23.04;47.99;101861.91;6126502;23;20018;-81
2022/10/12 10:58:22;;;;;;;35.55;33.05;;;;;;;23.18;48.34;101856.81;6126767;23;20452;-82
2022/10/12 11:01:00;;;;;;;39.33;36.97;;;;;;;22.84;48.64;101857.97;6126088;23;20030;-82
2022/10/12 11:03:34;;;;;;;45.67;42.90;;;;;;;22.91;50.37;101857.75;6126155;23;20088;-83
2022/10/12 11:06:20;;;;;;;35.88;33.58;;;;;;;22.30;51.07;101849.13;6125122;23;20033;-82
2022/10/12 11:08:50;;;;;;;36.55;34.38;;;;;;;22.79;51.65;101847.09;6052855;23;20022;-83
2022/10/12 11:11:21;;;;;;;38.50;36.13;;;;;;;22.77;50.45;101846.53;6097085;23;20029;-83
2022/10/12 11:13:58;;;;;;;38.13;35.83;;;;;;;22.35;50.25;101844.56;6125182;23;20018;-83
2022/10/12 11:16:31;;;;;;;40.97;38.40;;;;;;;21.82;49.02;101840.00;6126378;23;20045;-81
2022/10/12 11:19:27;;;;;;;;;;;;;;;;;;;;;
2022/10/12 11:22:01;;;;;;;39.22;36.88;;;;;;;22.33;52.28;101843.19;6113738;23;20092;-82
2022/10/12 11:24:35;;;;;;;39.88;37.40;;;;;;;22.07;61.08;101834.84;6126329;23;20530;-81
2022/10/12 11:27:07;;;;;;;38.55;36.25;;;;;;;21.83;58.23;101838.91;6126785;23;20048;-81
2022/10/12 11:29:37;;;;;;;47.80;43.57;;;;;;;21.84;67.78;101833.25;6126651;23;20080;-81
2022/10/12 11:32:14;;;;;;;46.75;42.72;;;;;;;21.79;96.66;101830.50;6127844;23;20014;-80
2022/10/12 11:34:48;;;;;;;45.10;42.00;;;;;;;21.24;100.00;101839.50;6130207;23;20018;-81
2022/10/12 11:37:22;;;;;;;40.15;37.65;;;;;;;20.94;100.00;101835.34;6128536;23;20017;-81
2022/10/12 11:39:52;;;;;;;48.25;44.92;;;;;;;21.07;100.00;101836.06;6126185;23;20028;-81
2022/10/12 11:42:32;;;;;;;44.63;41.83;;;;;;;20.94;100.00;101842.63;6125569;23;20026;-81
2022/10/12 11:45:07;;;;;;;51.97;48.67;;;;;;;20.57;100.00;101830.47;6125265;23;20325;-82